Time;durP1;ratioP1;P1;durP2;ratioP2;P2;SDS_P1;SDS_P2;PMS_P1;PMS_P2;Temp;Humidity;BMP_temperature;BMP_pressure;BME280_temperature;BME280_humidity;BME280_pressure;Samples;Min_cycle;Max_cycle;Signal;HPM_P1;HPM_P2
2021/11/13 00:00:35;;;;;;;24.33;5.95;;;;;;;7.30;100.00;100513.16;5008382;28;20121;-66
2021/11/13 00:03:00;;;;;;;18.75;6.07;;;;;;;7.28;100.00;100510.03;5019271;28;20116;-67
2021/11/13 00:05:26;;;;;;;25.13;7.05;;;;;;;7.43;100.00;100511.25;5012161;28;20117;-66
2021/11/13 00:07:52;;;;;;;21.08;6.85;;;;;;;7.46;100.00;100511.38;5016360;28;20040;-67
2021/11/13 00:10:25;;;;;;;22.75;7.20;;;;;;;7.52;100.00;100512.69;5015150;28;20029;-66
2021/11/13 00:12:51;;;;;;;23.02;6.35;;;;;;;7.55;100.00;100508.56;5012079;28;20038;-67
2021/11/13 00:15:22;;;;;;;14.68;4.93;;;;;;;7.56;100.00;100505.56;4998859;28;20041;-66
2021/11/13 00:17:54;;;;;;;20.77;5.80;;;;;;;7.59;100.00;100504.09;5017746;28;20052;-66
2021/11/13 00:20:22;;;;;;;27.98;6.82;;;;;;;7.62;100.00;100498.84;5000947;28;20786;-66
2021/11/13 00:22:48;;;;;;;29.88;7.00;;;;;;;7.49;100.00;100517.97;4987779;28;20030;-65
2021/11/13 00:25:15;;;;;;;19.77;6.25;;;;;;;7.41;100.00;100508.13;5016669;28;20044;-67
2021/11/13 00:27:42;;;;;;;25.33;6.15;;;;;;;7.47;100.00;100510.22;4993123;28;20395;-67
2021/11/13 00:30:11;;;;;;;13.35;4.18;;;;;;;7.59;100.00;100512.13;5008666;28;20036;-67
2021/11/13 00:32:37;;;;;;;26.63;6.70;;;;;;;7.58;100.00;100497.97;5000615;28;20033;-66
2021/11/13 00:35:03;;;;;;;16.33;5.32;;;;;;;7.54;100.00;100497.06;5017038;28;20029;-67
2021/11/13 00:37:29;;;;;;;30.85;7.30;;;;;;;7.59;100.00;100493.38;5011284;28;20037;-66
2021/11/13 00:39:54;;;;;;;28.92;6.68;;;;;;;7.53;100.00;100484.00;4999109;28;20037;-67
2021/11/13 00:42:20;;;;;;;28.70;7.57;;;;;;;7.63;100.00;100487.00;5008373;28;20090;-66
2021/11/13 00:44:46;;;;;;;21.45;6.32;;;;;;;7.50;100.00;100493.50;5007115;28;20057;-67
2021/11/13 00:47:11;;;;;;;26.85;6.65;;;;;;;7.43;100.00;100489.84;5004392;28;20045;-66
2021/11/13 00:49:37;;;;;;;12.75;4.35;;;;;;;7.42;100.00;100497.09;5004771;28;20033;-66
2021/11/13 00:52:03;;;;;;;17.05;6.20;;;;;;;7.32;100.00;100484.94;5010904;28;20029;-67
2021/11/13 00:54:30;;;;;;;18.65;6.25;;;;;;;7.30;100.00;100492.53;5007708;28;20476;-66
2021/11/13 00:56:56;;;;;;;16.60;4.40;;;;;;;7.30;100.00;100500.56;5009454;28;20519;-67
2021/11/13 00:59:22;;;;;;;21.75;5.82;;;;;;;7.32;100.00;100490.28;5006974;28;20034;-67
2021/11/13 01:01:47;;;;;;;22.10;5.15;;;;;;;7.23;100.00;100492.31;5009130;28;20030;-67
2021/11/13 01:04:13;;;;;;;26.00;7.63;;;;;;;7.27;100.00;100500.44;5004570;28;20060;-67
2021/11/13 01:06:39;;;;;;;14.00;5.55;;;;;;;7.27;100.00;100495.09;5014650;28;20071;-66
2021/11/13 01:09:04;;;;;;;19.13;6.25;;;;;;;7.20;100.00;100489.53;5005956;28;20065;-67
2021/11/13 01:11:30;;;;;;;21.33;5.40;;;;;;;7.23;100.00;100486.16;5008440;28;20030;-67
2021/11/13 01:13:57;;;;;;;19.33;6.63;;;;;;;7.36;100.00;100489.59;5007607;28;20030;-67
2021/11/13 01:16:24;;;;;;;15.95;5.80;;;;;;;7.32;100.00;100496.78;5011329;28;20680;-67
2021/11/13 01:18:50;;;;;;;15.68;5.20;;;;;;;7.26;100.00;100496.19;5011656;28;20038;-66
2021/11/13 01:21:20;;;;;;;23.48;5.65;;;;;;;7.32;100.00;100494.09;5006841;28;20046;-67
2021/11/13 01:23:46;;;;;;;21.45;6.28;;;;;;;7.40;100.00;100483.25;4985671;28;20489;-67
2021/11/13 01:26:11;;;;;;;25.98;7.97;;;;;;;7.36;100.00;100473.53;4990541;28;20040;-67
2021/11/13 01:28:39;;;;;;;15.25;5.20;;;;;;;7.31;100.00;100477.25;4991688;28;20030;-67
2021/11/13 01:31:07;;;;;;;13.63;5.03;;;;;;;7.32;100.00;100463.50;4989422;28;20046;-67
2021/11/13 01:33:37;;;;;;;23.50;6.10;;;;;;;7.38;100.00;100458.69;4992886;28;20085;-67
2021/11/13 01:36:04;;;;;;;21.63;5.97;;;;;;;7.38;100.00;100463.25;5008377;28;20088;-67
2021/11/13 01:38:31;;;;;;;21.92;5.63;;;;;;;7.37;100.00;100461.72;5011465;28;20280;-67
2021/11/13 01:40:57;;;;;;;20.50;5.45;;;;;;;7.39;100.00;100462.94;5012664;28;20048;-67
2021/11/13 01:43:23;;;;;;;23.15;5.53;;;;;;;7.40;100.00;100466.38;5008331;28;20049;-67
2021/11/13 01:45:48;;;;;;;24.63;6.75;;;;;;;7.44;100.00;100469.94;4992870;28;20070;-66
2021/11/13 01:48:14;;;;;;;27.50;6.25;;;;;;;7.43;100.00;100471.88;4994520;28;20076;-67
2021/11/13 01:50:43;;;;;;;20.02;5.28;;;;;;;7.45;100.00;100483.03;4998964;28;20056;-66
2021/11/13 01:53:11;;;;;;;26.33;7.38;;;;;;;7.38;100.00;100493.50;4994311;28;20046;-67
2021/11/13 01:55:38;;;;;;;24.45;6.40;;;;;;;7.35;100.00;100488.84;4994116;28;20035;-67
2021/11/13 01:58:06;;;;;;;21.35;5.50;;;;;;;7.36;100.00;100498.41;4979848;28;20060;-66
2021/11/13 02:00:35;;;;;;;14.25;4.75;;;;;;;7.28;100.00;100478.69;4992804;28;20401;-67
2021/11/13 02:03:02;;;;;;;18.05;5.72;;;;;;;7.25;100.00;100479.38;4993677;28;20428;-66
2021/11/13 02:05:28;;;;;;;22.98;6.55;;;;;;;7.39;100.00;100467.50;5011266;28;20072;-67
2021/11/13 02:07:54;;;;;;;31.58;7.72;;;;;;;7.45;100.00;100477.66;5013270;28;20522;-67
2021/11/13 02:10:21;;;;;;;20.40;5.63;;;;;;;7.40;100.00;100469.06;4976048;28;20419;-67
2021/11/13 02:12:47;;;;;;;19.33;7.00;;;;;;;7.36;100.00;100473.53;4993334;28;20042;-66
2021/11/13 02:15:13;;;;;;;15.13;5.43;;;;;;;7.39;100.00;100472.88;5006881;28;20483;-67
2021/11/13 02:17:39;;;;;;;20.98;7.40;;;;;;;7.39;100.00;100478.22;5012811;28;20125;-66
2021/11/13 02:20:26;;;;;;;15.98;5.85;;;;;;;7.40;100.00;100479.78;4999840;28;20037;-67
2021/11/13 02:22:54;;;;;;;23.10;5.85;;;;;;;7.29;100.00;100479.47;4993994;28;20084;-67
2021/11/13 02:25:24;;;;;;;20.25;6.75;;;;;;;7.36;100.00;100460.94;4993371;28;20431;-66
2021/11/13 02:27:50;;;;;;;24.73;6.35;;;;;;;7.31;100.00;100461.16;4993282;28;20034;-67
2021/11/13 02:30:16;;;;;;;18.65;6.10;;;;;;;7.37;100.00;100462.50;5004377;28;20511;-67
2021/11/13 02:32:42;;;;;;;22.75;6.82;;;;;;;7.35;100.00;100456.69;5012463;28;20385;-65
2021/11/13 02:35:11;;;;;;;15.68;5.82;;;;;;;7.37;100.00;100453.69;5007987;28;20561;-66
2021/11/13 02:37:37;;;;;;;16.15;5.05;;;;;;;7.52;100.00;100461.78;5012991;28;20038;-66
2021/11/13 02:40:07;;;;;;;14.77;5.95;;;;;;;7.49;100.00;100457.09;5011221;28;20053;-67
2021/11/13 02:42:34;;;;;;;18.13;5.90;;;;;;;7.49;100.00;100462.44;5009635;28;20108;-67
2021/11/13 02:45:02;;;;;;;25.13;6.25;;;;;;;7.56;100.00;100448.50;4992956;28;20085;-66
2021/11/13 02:47:27;;;;;;;16.65;6.82;;;;;;;7.52;100.00;100445.72;4994460;28;20053;-67
2021/11/13 02:49:56;;;;;;;20.45;6.85;;;;;;;7.53;100.00;100459.91;5007722;28;20492;-65
2021/11/13 02:52:22;;;;;;;17.65;5.00;;;;;;;7.40;100.00;100453.00;5011574;28;20759;-66
2021/11/13 02:54:49;;;;;;;25.48;6.40;;;;;;;7.40;100.00;100458.34;4992503;28;20111;-67
2021/11/13 02:57:15;;;;;;;16.85;5.95;;;;;;;7.33;100.00;100445.53;5010078;28;20096;-66
2021/11/13 02:59:42;;;;;;;21.27;6.18;;;;;;;7.37;100.00;100457.16;5011096;28;20052;-66
2021/11/13 03:02:08;;;;;;;18.27;6.10;;;;;;;7.44;100.00;100451.19;5011246;28;20104;-67
2021/11/13 03:04:33;;;;;;;14.60;5.25;;;;;;;7.42;100.00;100445.41;5011575;28;20038;-67
2021/11/13 03:06:59;;;;;;;19.35;6.85;;;;;;;7.44;100.00;100448.53;5011869;28;20034;-67
2021/11/13 03:09:24;;;;;;;17.65;6.80;;;;;;;7.35;100.00;100450.56;5010622;28;20054;-66
2021/11/13 03:11:50;;;;;;;14.90;5.45;;;;;;;7.42;100.00;100448.88;5008171;28;20100;-66
2021/11/13 03:14:15;;;;;;;24.17;6.13;;;;;;;7.48;100.00;100454.75;5010030;28;20083;-67
2021/11/13 03:16:44;;;;;;;24.20;6.10;;;;;;;7.49;100.00;100440.25;4999663;28;20080;-66
2021/11/13 03:19:09;;;;;;;20.48;6.50;;;;;;;7.39;100.00;100452.22;4989912;28;20080;-66
2021/11/13 03:21:35;;;;;;;28.88;7.40;;;;;;;7.52;100.00;100453.75;4999259;28;20034;-66
2021/11/13 03:24:01;;;;;;;16.65;5.65;;;;;;;7.49;100.00;100446.38;4992594;28;20055;-67
2021/11/13 03:26:28;;;;;;;14.75;5.82;;;;;;;7.48;100.00;100446.72;4985621;28;20097;-67
2021/11/13 03:28:57;;;;;;;22.02;6.10;;;;;;;7.51;100.00;100446.81;5009823;28;20048;-66
2021/11/13 03:31:24;;;;;;;17.67;5.10;;;;;;;7.52;100.00;100450.28;5006232;28;20128;-67
2021/11/13 03:33:50;;;;;;;19.02;6.57;;;;;;;7.54;100.00;100450.72;5011164;28;20041;-66
2021/11/13 03:36:19;;;;;;;21.58;7.05;;;;;;;7.51;100.00;100446.81;5010247;28;20037;-67
2021/11/13 03:38:44;;;;;;;21.20;6.00;;;;;;;7.54;100.00;100448.84;4995443;28;20028;-67
2021/11/13 03:41:10;;;;;;;17.75;4.75;;;;;;;7.43;100.00;100441.63;4973205;28;20125;-67
2021/11/13 03:43:37;;;;;;;13.93;5.32;;;;;;;7.37;100.00;100443.75;4991960;28;20039;-66
2021/11/13 03:46:07;;;;;;;21.38;6.57;;;;;;;7.53;100.00;100455.31;4998205;28;20030;-67
2021/11/13 03:48:33;;;;;;;21.63;5.60;;;;;;;7.45;100.00;100450.09;4977521;28;20045;-67
2021/11/13 03:50:59;;;;;;;19.90;6.18;;;;;;;7.50;100.00;100447.97;5006774;28;20037;-66
2021/11/13 03:53:24;;;;;;;18.58;6.68;;;;;;;7.48;100.00;100452.09;4990544;28;20041;-66
2021/11/13 03:55:50;;;;;;;12.20;5.07;;;;;;;7.53;100.00;100449.94;5002745;28;20412;-66
2021/11/13 03:58:16;;;;;;;18.48;6.35;;;;;;;7.51;100.00;100448.75;5010094;28;20124;-67
2021/11/13 04:00:41;;;;;;;18.58;6.47;;;;;;;7.49;100.00;100450.97;4990493;28;20030;-67
2021/11/13 04:03:07;;;;;;;13.30;6.40;;;;;;;7.42;100.00;100446.19;4991732;28;20113;-66
2021/11/13 04:05:33;;;;;;;14.48;5.38;;;;;;;7.54;100.00;100446.16;4974492;28;20117;-67
2021/11/13 04:08:03;;;;;;;15.65;5.43;;;;;;;7.57;100.00;100442.03;4991636;28;20037;-66
2021/11/13 04:10:29;;;;;;;17.90;6.22;;;;;;;7.52;100.00;100450.28;5009267;28;20092;-66
2021/11/13 04:12:55;;;;;;;19.60;4.88;;;;;;;7.49;100.00;100446.38;4994863;28;20528;-66
2021/11/13 04:15:20;;;;;;;12.13;4.88;;;;;;;7.52;100.00;100450.28;4985167;28;20057;-66
2021/11/13 04:17:48;;;;;;;21.08;6.72;;;;;;;7.55;100.00;100444.28;5018670;28;20128;-67
2021/11/13 04:20:14;;;;;;;18.20;5.18;;;;;;;7.50;100.00;100439.91;5006683;28;20057;-66
2021/11/13 04:22:40;;;;;;;21.23;6.13;;;;;;;7.59;100.00;100445.91;5009797;28;20504;-67
2021/11/13 04:25:07;;;;;;;10.38;6.07;;;;;;;7.63;100.00;100456.72;5010809;28;20121;-67
2021/11/13 04:27:33;;;;;;;26.80;7.40;;;;;;;7.58;100.00;100449.72;4991465;28;20480;-67
2021/11/13 04:29:59;;;;;;;13.52;5.68;;;;;;;7.49;100.00;100456.34;5004938;23;20042;-66
2021/11/13 04:32:29;;;;;;;16.58;5.82;;;;;;;7.48;100.00;100454.75;4989232;28;20026;-66
2021/11/13 04:37:26;;;;;;;17.42;6.05;;;;;;;7.56;100.00;100451.97;5010457;28;20117;-66
2021/11/13 04:39:55;;;;;;;20.40;5.90;;;;;;;7.61;100.00;100448.25;4981276;28;20500;-65
2021/11/13 04:42:21;;;;;;;17.20;5.95;;;;;;;7.57;100.00;100444.72;4973397;28;20069;-66
2021/11/13 04:44:49;;;;;;;14.93;4.78;;;;;;;7.56;100.00;100454.66;4989528;28;20444;-66
2021/11/13 04:47:15;;;;;;;21.63;6.55;;;;;;;7.65;100.00;100449.13;4982495;28;20665;-67
2021/11/13 04:49:41;;;;;;;22.52;6.10;;;;;;;7.71;100.00;100451.25;4989507;28;20081;-66
2021/11/13 04:52:08;;;;;;;14.73;5.30;;;;;;;7.72;100.00;100441.31;4990032;28;20039;-66
2021/11/13 04:54:34;;;;;;;19.08;6.18;;;;;;;7.74;100.00;100447.09;4982967;28;20051;-66
2021/11/13 04:57:00;;;;;;;17.75;6.85;;;;;;;7.69;100.00;100455.38;4976627;28;20043;-66
2021/11/13 04:59:26;;;;;;;17.77;5.95;;;;;;;7.72;100.00;100460.06;4990198;28;20100;-66
2021/11/13 05:01:52;;;;;;;22.33;7.13;;;;;;;7.75;100.00;100470.09;4972248;28;20050;-66
2021/11/13 05:04:17;;;;;;;23.13;6.85;;;;;;;7.81;100.00;100471.41;4990778;28;20026;-66
2021/11/13 05:06:43;;;;;;;18.50;5.30;;;;;;;7.69;100.00;100471.44;4989527;28;20038;-67
2021/11/13 05:09:09;;;;;;;14.48;5.15;;;;;;;7.60;100.00;100457.41;4990870;28;20519;-66
2021/11/13 05:11:34;;;;;;;21.83;4.88;;;;;;;7.57;100.00;100463.47;4976867;28;20054;-66
2021/11/13 05:14:00;;;;;;;20.00;7.13;;;;;;;7.62;100.00;100468.56;4976149;28;20053;-66
2021/11/13 05:16:26;;;;;;;19.52;7.07;;;;;;;7.64;100.00;100463.66;4994564;28;20108;-66
2021/11/13 05:18:51;;;;;;;15.35;6.07;;;;;;;7.67;100.00;100457.63;4986091;28;20054;-66
2021/11/13 05:21:17;;;;;;;18.63;7.55;;;;;;;7.62;100.00;100469.38;4981930;28;20038;-66
2021/11/13 05:23:43;;;;;;;17.27;6.10;;;;;;;7.60;100.00;100454.75;4993941;28;20030;-66
2021/11/13 05:26:09;;;;;;;19.75;6.22;;;;;;;7.62;100.00;100469.38;4994151;28;20033;-66
2021/11/13 05:28:34;;;;;;;20.75;5.35;;;;;;;7.66;100.00;100472.16;4987061;28;20039;-66
2021/11/13 05:31:01;;;;;;;16.52;6.00;;;;;;;7.68;100.00;100467.22;4980322;28;20053;-67
2021/11/13 05:33:27;;;;;;;14.63;4.93;;;;;;;7.66;100.00;100472.16;4974413;28;20358;-66
2021/11/13 05:35:53;;;;;;;18.20;5.40;;;;;;;7.59;100.00;100471.94;4975893;28;20098;-66
2021/11/13 05:38:19;;;;;;;15.35;5.45;;;;;;;7.64;100.00;100464.44;4975825;28;20045;-66
2021/11/13 05:40:45;;;;;;;19.58;5.93;;;;;;;7.67;100.00;100471.00;4973224;28;20035;-67
2021/11/13 05:43:11;;;;;;;19.25;5.63;;;;;;;7.67;100.00;100466.44;4970894;28;20070;-66
2021/11/13 05:45:37;;;;;;;17.42;5.40;;;;;;;7.67;100.00;100466.44;4976508;28;20069;-66
2021/11/13 05:48:03;;;;;;;15.00;5.68;;;;;;;7.71;100.00;100470.00;4975555;28;20043;-66
2021/11/13 05:50:29;;;;;;;19.63;6.40;;;;;;;7.68;100.00;100475.25;4975299;28;20027;-67
2021/11/13 05:52:55;;;;;;;12.52;4.85;;;;;;;7.63;100.00;100470.91;4982875;28;20034;-66
2021/11/13 05:55:24;;;;;;;17.05;5.72;;;;;;;7.77;100.00;100470.53;4982410;28;20065;-67
2021/11/13 05:57:51;;;;;;;17.80;6.00;;;;;;;7.72;100.00;100474.25;4960501;28;20045;-66
2021/11/13 06:00:18;;;;;;;17.67;5.90;;;;;;;7.77;100.00;100478.59;4982270;28;20049;-66
2021/11/13 06:02:45;;;;;;;22.67;6.50;;;;;;;7.81;100.00;100479.47;4975286;28;20608;-66
2021/11/13 06:05:10;;;;;;;16.63;5.57;;;;;;;7.70;100.00;100473.03;4975862;28;20988;-66
2021/11/13 06:07:37;;;;;;;20.00;5.32;;;;;;;7.66;100.00;100472.94;4975982;28;20034;-66
2021/11/13 06:10:03;;;;;;;12.55;4.80;;;;;;;7.68;100.00;100472.59;4971908;28;20057;-66
2021/11/13 06:12:31;;;;;;;13.65;4.60;;;;;;;7.53;100.00;100473.31;4978282;28;20516;-66
2021/11/13 06:14:57;;;;;;;12.90;5.47;;;;;;;7.50;100.00;100468.59;4975109;28;20507;-66
2021/11/13 06:17:23;;;;;;;17.63;5.38;;;;;;;7.62;100.00;100473.94;4982353;28;20026;-66
2021/11/13 06:19:48;;;;;;;15.00;5.72;;;;;;;7.57;100.00;100474.19;4970795;28;20408;-66
2021/11/13 06:22:15;;;;;;;13.43;4.90;;;;;;;7.55;100.00;100465.72;4970254;28;20031;-66
2021/11/13 06:24:40;;;;;;;19.58;5.65;;;;;;;7.46;100.00;100471.19;4980084;28;20145;-65
2021/11/13 06:27:06;;;;;;;19.65;5.55;;;;;;;7.41;100.00;100471.44;4972460;28;20106;-66
2021/11/13 06:29:32;;;;;;;15.35;6.57;;;;;;;7.43;100.00;100473.75;4976127;28;20026;-66
2021/11/13 06:31:58;;;;;;;14.07;5.63;;;;;;;7.41;100.00;100471.44;4974240;28;20050;-66
2021/11/13 06:34:24;;;;;;;15.80;5.10;;;;;;;7.48;100.00;100490.38;4973189;28;20460;-66
2021/11/13 06:36:49;;;;;;;14.73;6.18;;;;;;;7.46;100.00;100484.56;4985195;28;20042;-66
2021/11/13 06:39:15;;;;;;;17.63;5.80;;;;;;;7.55;100.00;100481.78;4975142;28;20055;-66
2021/11/13 06:41:40;;;;;;;20.05;6.55;;;;;;;7.56;100.00;100491.38;4974985;28;20030;-66
2021/11/13 06:44:06;;;;;;;18.27;5.63;;;;;;;7.58;100.00;100500.63;4970924;28;20057;-66
2021/11/13 06:46:31;;;;;;;14.82;5.22;;;;;;;7.56;100.00;100504.75;4979187;28;20043;-66
2021/11/13 06:48:57;;;;;;;20.60;6.85;;;;;;;7.61;100.00;100502.63;4976431;28;20043;-66
2021/11/13 06:51:22;;;;;;;16.05;5.93;;;;;;;7.56;100.00;100500.19;4975065;28;20041;-66
2021/11/13 06:53:50;;;;;;;18.80;6.07;;;;;;;7.53;100.00;100505.44;4972064;28;20035;-66
2021/11/13 06:56:16;;;;;;;24.33;6.60;;;;;;;7.45;100.00;100514.38;4976839;28;20027;-66
2021/11/13 06:58:46;;;;;;;15.75;6.00;;;;;;;7.50;100.00;100517.63;4977860;28;20030;-66
2021/11/13 07:01:13;;;;;;;16.00;5.38;;;;;;;7.47;100.00;100520.94;4979117;28;20394;-66
2021/11/13 07:03:38;;;;;;;19.48;4.93;;;;;;;7.48;100.00;100524.41;4979255;28;20022;-66
2021/11/13 07:06:04;;;;;;;19.77;6.57;;;;;;;7.47;100.00;100522.88;4976619;28;20057;-66
2021/11/13 07:08:29;;;;;;;15.68;6.68;;;;;;;7.58;100.00;100516.72;4981484;28;20125;-66
2021/11/13 07:10:55;;;;;;;12.88;4.95;;;;;;;7.56;100.00;100521.63;4974229;28;20043;-66
2021/11/13 07:13:24;;;;;;;18.80;6.07;;;;;;;7.65;100.00;100521.47;4983227;28;20038;-67
2021/11/13 07:15:50;;;;;;;16.25;5.60;;;;;;;7.63;100.00;100531.75;4983932;28;20030;-66
2021/11/13 07:18:16;;;;;;;13.95;5.60;;;;;;;7.68;100.00;100524.28;4991261;28;20046;-67
2021/11/13 07:20:56;;;;;;;14.35;5.68;;;;;;;7.65;100.00;100532.19;4987336;28;20492;-66
2021/11/13 07:23:24;;;;;;;10.68;4.38;;;;;;;7.65;100.00;100524.16;4976944;28;20034;-66
2021/11/13 07:25:50;;;;;;;21.65;6.13;;;;;;;7.65;100.00;100538.34;4979384;28;20073;-67
2021/11/13 07:28:19;;;;;;;14.90;6.03;;;;;;;7.69;100.00;100535.78;4977062;28;20051;-67
2021/11/13 07:30:47;;;;;;;16.58;5.68;;;;;;;7.72;100.00;100541.25;4968331;28;20045;-66
2021/11/13 07:33:13;;;;;;;17.05;5.50;;;;;;;7.80;100.00;100543.00;4971127;28;20039;-67
2021/11/13 07:35:42;;;;;;;12.80;5.63;;;;;;;7.79;100.00;100544.13;4972084;28;20045;-67
2021/11/13 07:38:09;;;;;;;15.18;5.20;;;;;;;7.80;100.00;100551.03;4986129;28;20053;-66
2021/11/13 07:40:34;;;;;;;12.35;5.40;;;;;;;7.79;100.00;100556.75;4953956;28;20065;-66
2021/11/13 07:43:00;;;;;;;14.27;4.70;;;;;;;7.78;100.00;100558.63;4988756;28;20026;-66
2021/11/13 07:45:30;;;;;;;17.40;5.95;;;;;;;7.78;100.00;100569.38;4991575;28;20464;-66
2021/11/13 07:47:56;;;;;;;16.65;5.65;;;;;;;7.79;100.00;100570.94;4977749;28;20645;-65
2021/11/13 07:50:21;;;;;;;11.68;5.25;;;;;;;7.73;100.00;100572.28;4971964;28;20084;-67
2021/11/13 07:52:50;;;;;;;12.20;4.63;;;;;;;7.81;100.00;100565.22;4991743;28;20493;-67
2021/11/13 07:55:17;;;;;;;18.08;5.15;;;;;;;7.68;100.00;100574.41;4973809;28;20089;-66
2021/11/13 07:57:45;;;;;;;14.95;5.32;;;;;;;7.63;100.00;100574.63;4983315;28;20495;-67
2021/11/13 08:00:12;;;;;;;12.77;4.97;;;;;;;7.60;100.00;100569.94;4971615;28;20124;-66
2021/11/13 08:02:41;;;;;;;15.48;5.90;;;;;;;7.72;100.00;100584.13;4986770;28;20498;-67
2021/11/13 08:05:08;;;;;;;13.57;6.07;;;;;;;7.78;100.00;100576.66;5003364;28;20066;-65
2021/11/13 08:07:34;;;;;;;22.55;6.60;;;;;;;7.79;100.00;100581.66;4971906;28;20490;-66
2021/11/13 08:10:05;;;;;;;11.10;5.03;;;;;;;7.79;100.00;100578.97;4981662;28;20878;-65
2021/11/13 08:12:31;;;;;;;16.55;6.13;;;;;;;7.81;100.00;100589.34;4983849;28;20031;-66
2021/11/13 08:14:56;;;;;;;17.83;6.03;;;;;;;7.84;100.00;100591.38;4981146;28;20033;-66
2021/11/13 08:17:22;;;;;;;17.40;5.57;;;;;;;7.80;100.00;100582.44;4980157;28;20026;-67
2021/11/13 08:19:48;;;;;;;10.82;4.18;;;;;;;7.86;100.00;100586.44;4979420;28;20444;-66
2021/11/13 08:22:13;;;;;;;15.82;5.47;;;;;;;7.88;100.00;100594.91;4973706;28;20496;-65
2021/11/13 08:24:39;;;;;;;11.38;5.00;;;;;;;7.88;100.00;100598.38;4980131;28;20034;-66
2021/11/13 08:27:05;;;;;;;12.55;5.65;;;;;;;7.95;100.00;100589.78;4990866;28;20033;-67
2021/11/13 08:29:32;;;;;;;17.90;5.72;;;;;;;7.89;100.00;100591.13;4989499;28;20451;-66
2021/11/13 08:31:57;;;;;;;15.40;5.55;;;;;;;7.93;100.00;100586.66;4984472;28;20046;-66
2021/11/13 08:34:23;;;;;;;20.02;5.07;;;;;;;7.99;100.00;100593.34;4975707;28;20092;-66
2021/11/13 08:36:48;;;;;;;15.00;5.25;;;;;;;7.92;100.00;100599.28;4977269;28;20080;-67
2021/11/13 08:39:14;;;;;;;14.68;4.63;;;;;;;7.98;100.00;100597.94;4975211;28;20039;-66
2021/11/13 08:41:40;;;;;;;15.13;4.22;;;;;;;7.93;100.00;100594.72;4977841;28;20046;-67
2021/11/13 08:44:05;;;;;;;13.57;5.40;;;;;;;7.94;100.00;100601.63;4975970;28;20374;-67
2021/11/13 08:46:32;;;;;;;12.80;5.13;;;;;;;7.94;100.00;100590.91;4982474;28;20050;-66
2021/11/13 08:48:58;;;;;;;11.27;5.10;;;;;;;7.99;100.00;100596.03;4977981;28;20039;-67
2021/11/13 08:51:23;;;;;;;14.13;4.97;;;;;;;7.96;100.00;100588.66;4975397;28;20034;-70
2021/11/13 08:53:58;;;;;;;13.43;5.35;;;;;;;8.02;100.00;100593.47;4975352;28;20043;-67
2021/11/13 08:56:25;;;;;;;16.42;6.10;;;;;;;8.05;100.00;100586.66;4984082;28;20471;-66
2021/11/13 08:58:52;;;;;;;15.52;5.38;;;;;;;8.10;100.00;100591.75;4989888;28;20118;-68
2021/11/13 09:01:20;;;;;;;20.98;5.63;;;;;;;8.12;100.00;100592.19;4981861;28;20035;-69
2021/11/13 09:03:46;;;;;;;13.13;4.82;;;;;;;8.13;100.00;100593.75;4985145;28;20034;-65
2021/11/13 09:06:29;;;;;;;14.07;5.07;;;;;;;8.15;100.00;100592.31;4974177;28;20042;-66
2021/11/13 09:08:59;;;;;;;12.30;4.65;;;;;;;8.11;100.00;100593.31;4979963;28;20050;-67
2021/11/13 09:11:28;;;;;;;15.02;4.85;;;;;;;8.16;100.00;100601.13;4976949;28;20543;-66
2021/11/13 09:13:57;;;;;;;12.48;5.25;;;;;;;8.23;100.00;100598.66;4982433;28;20046;-67
2021/11/13 09:16:22;;;;;;;9.00;4.40;;;;;;;8.24;100.00;100597.53;4985169;28;20436;-66
2021/11/13 09:18:49;;;;;;;9.10;4.55;;;;;;;8.26;100.00;100599.91;4971143;28;20669;-66
2021/11/13 09:21:14;;;;;;;12.50;5.75;;;;;;;8.25;100.00;100601.00;4979049;28;20038;-67
2021/11/13 09:23:43;;;;;;;15.02;5.78;;;;;;;8.16;100.00;100598.44;4962876;28;20570;-67
2021/11/13 09:26:10;;;;;;;10.75;4.75;;;;;;;8.25;100.00;100603.69;4978795;28;20033;-67
2021/11/13 09:28:37;;;;;;;13.60;4.95;;;;;;;8.23;100.00;100612.06;4982741;28;20393;-67
2021/11/13 09:31:03;;;;;;;12.77;4.60;;;;;;;8.14;100.00;100616.78;4976161;28;20030;-67
2021/11/13 09:33:30;;;;;;;11.20;4.60;;;;;;;8.28;100.00;100611.06;4974397;28;20512;-66
2021/11/13 09:35:56;;;;;;;17.50;6.00;;;;;;;8.15;100.00;100623.69;4978549;28;20077;-67
2021/11/13 09:38:28;;;;;;;15.15;5.43;;;;;;;8.19;100.00;100621.91;4977321;28;20033;-69
2021/11/13 09:40:56;;;;;;;17.10;5.20;;;;;;;8.12;100.00;100622.50;4972418;28;20053;-66
2021/11/13 09:43:23;;;;;;;15.07;5.55;;;;;;;8.26;100.00;100616.78;4968491;28;20026;-67
2021/11/13 09:45:51;;;;;;;13.75;5.28;;;;;;;8.35;100.00;100613.94;4978466;28;20070;-67
2021/11/13 09:48:17;;;;;;;13.13;4.85;;;;;;;8.38;100.00;100624.78;4982449;28;20105;-67
2021/11/13 09:50:46;;;;;;;17.40;5.38;;;;;;;8.45;100.00;100621.53;4972620;28;20077;-66
2021/11/13 09:53:12;;;;;;;17.80;6.47;;;;;;;8.49;100.00;100627.78;4975457;28;20042;-66
2021/11/13 09:55:39;;;;;;;18.35;5.05;;;;;;;8.44;100.00;100636.84;4975088;28;20474;-67
2021/11/13 09:58:05;;;;;;;17.40;6.35;;;;;;;8.43;100.00;100621.09;4978008;28;20473;-67
2021/11/13 10:00:35;;;;;;;14.05;5.47;;;;;;;8.47;100.00;100624.66;4974232;28;20044;-67
2021/11/13 10:03:02;;;;;;;11.13;4.63;;;;;;;8.49;100.00;100622.41;4974890;28;20069;-66
2021/11/13 10:05:28;;;;;;;20.48;6.47;;;;;;;8.53;100.00;100634.81;4976400;28;20282;-67
2021/11/13 10:07:54;;;;;;;15.10;5.72;;;;;;;8.51;100.00;100631.69;4971849;28;20117;-67
2021/11/13 10:10:31;;;;;;;15.80;5.60;;;;;;;8.47;100.00;100644.22;4974531;28;20042;-67
2021/11/13 10:12:58;;;;;;;15.27;5.93;;;;;;;8.56;100.00;100639.50;4971366;28;20070;-66
2021/11/13 10:15:25;;;;;;;17.67;5.60;;;;;;;8.59;100.00;100638.03;4970638;28;20088;-66
2021/11/13 10:18:15;;;;;;;17.60;5.30;;;;;;;8.57;100.00;100635.69;4969124;28;20046;-67
2021/11/13 10:20:50;;;;;;;12.43;4.90;;;;;;;8.57;100.00;100640.28;4974088;28;20030;-67
2021/11/13 10:23:27;;;;;;;13.20;4.72;;;;;;;8.53;100.00;100648.22;4975338;28;20035;-66
2021/11/13 10:25:56;;;;;;;13.10;4.05;;;;;;;8.55;100.00;100647.88;4975079;28;20055;-67
2021/11/13 10:28:21;;;;;;;10.65;4.85;;;;;;;8.55;100.00;100647.88;4976205;28;20500;-67
2021/11/13 10:30:46;;;;;;;11.88;5.00;;;;;;;8.69;100.00;100650.97;4974632;28;20068;-67
2021/11/13 10:33:12;;;;;;;15.65;5.00;;;;;;;8.74;100.00;100648.81;4975357;28;20409;-67
2021/11/13 10:35:49;;;;;;;15.30;5.28;;;;;;;8.75;100.00;100646.94;4972690;28;20038;-67
2021/11/13 10:38:16;;;;;;;12.98;6.28;;;;;;;8.71;100.00;100649.50;4972586;28;20052;-67
2021/11/13 10:41:03;;;;;;;16.20;5.68;;;;;;;8.83;100.00;100654.03;4969803;28;20438;-66
2021/11/13 10:43:48;;;;;;;9.23;4.40;;;;;;;8.86;100.00;100656.81;4989535;28;20034;-67
2021/11/13 10:46:17;;;;;;;15.90;4.38;;;;;;;8.89;100.00;100649.97;4975574;28;20042;-67
2021/11/13 10:48:46;;;;;;;12.73;5.47;;;;;;;8.91;100.00;100655.78;4975756;28;20034;-67
2021/11/13 10:51:16;;;;;;;12.25;4.97;;;;;;;9.01;100.00;100656.06;4983593;28;20096;-67
2021/11/13 10:53:43;;;;;;;10.90;4.05;;;;;;;8.87;100.00;100647.63;4974319;28;20049;-67
2021/11/13 10:56:30;;;;;;;12.25;4.95;;;;;;;8.89;100.00;100652.66;4975227;28;20034;-67
2021/11/13 10:59:00;;;;;;;11.05;4.20;;;;;;;8.91;100.00;100647.72;4973472;28;20104;-66
2021/11/13 11:01:32;;;;;;;14.73;5.63;;;;;;;9.01;100.00;100649.91;4978411;28;20053;-67
2021/11/13 11:04:09;;;;;;;13.35;5.00;;;;;;;9.05;100.00;100651.59;4969692;28;20790;-67
2021/11/13 11:06:38;;;;;;;12.75;5.10;;;;;;;9.08;100.00;100648.19;4971846;28;20034;-66
2021/11/13 11:09:29;;;;;;;12.23;5.50;;;;;;;9.09;100.00;100647.09;4978537;28;20500;-67
2021/11/13 11:11:58;;;;;;;12.32;4.35;;;;;;;9.04;100.00;100647.31;4986550;28;20089;-67
2021/11/13 11:14:28;;;;;;;14.00;4.30;;;;;;;9.10;100.00;100643.25;4984164;28;20122;-67
2021/11/13 11:17:03;;;;;;;12.80;5.20;;;;;;;9.14;100.00;100648.72;4976565;28;20509;-66
2021/11/13 11:19:32;;;;;;;13.90;5.57;;;;;;;9.16;100.00;100637.63;4972743;28;20042;-66